createdAt,value
2022-09-12T00:01:23.438Z,2.87
2022-09-12T00:04:08.035Z,2.27
2022-09-12T00:06:40.383Z,2.87
2022-09-12T00:09:14.225Z,2.60
2022-09-12T00:11:48.760Z,2.97
2022-09-12T00:14:21.445Z,2.70
2022-09-12T00:16:51.710Z,2.63
2022-09-12T00:19:24.737Z,2.60
2022-09-12T00:21:57.571Z,2.50
2022-09-12T00:24:24.753Z,2.60
2022-09-12T00:26:55.283Z,2.20
2022-09-12T00:29:27.237Z,2.53
2022-09-12T00:31:57.549Z,2.30
2022-09-12T00:34:29.826Z,2.33
2022-09-12T00:37:07.961Z,2.40
2022-09-12T00:39:39.855Z,2.47
2022-09-12T00:42:11.470Z,2.70
2022-09-12T00:44:42.501Z,2.50
2022-09-12T00:47:38.632Z,2.23
2022-09-12T00:50:11.979Z,2.40
2022-09-12T00:52:48.791Z,2.30
2022-09-12T00:55:30.462Z,2.40
2022-09-12T00:58:01.706Z,2.37
2022-09-12T01:00:31.757Z,2.23
2022-09-12T01:03:08.676Z,2.40
2022-09-12T01:05:40.663Z,2.37
2022-09-12T01:08:10.862Z,2.10
2022-09-12T01:10:41.567Z,2.23
2022-09-12T01:13:11.818Z,2.43
2022-09-12T01:15:43.866Z,2.30
2022-09-12T01:18:38.394Z,2.27
2022-09-12T01:21:28.783Z,2.37
2022-09-12T01:24:23.763Z,2.40
2022-09-12T01:26:55.689Z,2.30
2022-09-12T01:29:41.840Z,2.13
2022-09-12T01:32:14.097Z,2.27
2022-09-12T01:35:01.623Z,2.40
2022-09-12T01:38:06.185Z,2.10
2022-09-12T01:40:49.390Z,2.40
2022-09-12T01:43:22.826Z,2.20
2022-09-12T01:46:16.076Z,2.00
2022-09-12T01:48:48.504Z,2.20
2022-09-12T01:51:39.487Z,2.10
2022-09-12T01:54:19.666Z,2.00
2022-09-12T01:56:55.113Z,2.20
2022-09-12T02:02:38.280Z,2.07
2022-09-12T02:05:16.020Z,1.93
2022-09-12T02:07:53.478Z,2.10
2022-09-12T02:10:32.689Z,2.07
2022-09-12T02:13:40.047Z,2.10
2022-09-12T02:16:15.741Z,2.17
2022-09-12T02:19:01.385Z,1.90
2022-09-12T02:21:44.130Z,1.80
2022-09-12T02:24:20.591Z,2.10
2022-09-12T02:26:55.760Z,2.57
2022-09-12T02:29:25.034Z,1.93
2022-09-12T02:31:58.964Z,1.80
2022-09-12T02:37:27.122Z,2.00
2022-09-12T02:39:57.320Z,1.87
2022-09-12T02:42:28.756Z,1.93
2022-09-12T02:45:01.952Z,1.67
2022-09-12T02:47:38.329Z,1.90
2022-09-12T02:50:10.825Z,1.97
2022-09-12T02:52:39.289Z,2.00
2022-09-12T02:55:15.476Z,2.00
2022-09-12T02:57:43.855Z,2.00
2022-09-12T03:00:12.500Z,1.83
2022-09-12T03:03:02.895Z,1.73
2022-09-12T03:05:43.780Z,1.80
2022-09-12T03:08:23.929Z,1.80
2022-09-12T03:11:01.468Z,1.73
2022-09-12T03:13:52.232Z,1.73
2022-09-12T03:16:34.518Z,2.00
2022-09-12T03:19:23.389Z,1.67
2022-09-12T03:22:13.076Z,1.70
2022-09-12T03:25:04.346Z,1.97
2022-09-12T03:27:40.920Z,1.70
2022-09-12T03:30:11.225Z,1.80
2022-09-12T03:32:52.352Z,1.97
2022-09-12T03:35:23.287Z,1.70
2022-09-12T03:37:56.144Z,1.60
2022-09-12T03:40:24.579Z,1.90
2022-09-12T03:42:57.790Z,1.70
2022-09-12T03:45:29.682Z,1.77
2022-09-12T03:48:07.111Z,1.77
2022-09-12T03:50:35.801Z,1.57
2022-09-12T03:53:15.274Z,2.10
2022-09-12T03:55:48.935Z,1.87
2022-09-12T03:58:18.437Z,1.70
2022-09-12T04:00:47.300Z,1.80
2022-09-12T04:03:19.569Z,1.80
2022-09-12T04:05:51.201Z,1.77
2022-09-12T04:08:24.617Z,1.80
2022-09-12T04:10:55.004Z,2.00
2022-09-12T04:13:28.819Z,2.00
2022-09-12T04:16:03.427Z,2.03
2022-09-12T04:18:43.361Z,1.90
2022-09-12T04:21:25.421Z,1.83
2022-09-12T04:23:59.256Z,1.93
2022-09-12T04:26:29.784Z,1.97
2022-09-12T04:28:59.908Z,2.00
2022-09-12T04:31:29.644Z,2.03
2022-09-12T04:34:02.436Z,2.00
2022-09-12T04:36:34.731Z,2.00
2022-09-12T04:39:06.070Z,2.03
2022-09-12T04:41:36.172Z,2.17
2022-09-12T04:44:09.464Z,2.20
2022-09-12T04:46:41.305Z,2.20
2022-09-12T04:49:10.608Z,1.87
2022-09-12T04:51:43.034Z,2.00
2022-09-12T04:54:20.127Z,2.20
2022-09-12T04:56:51.324Z,2.47
2022-09-12T04:59:21.081Z,2.30
2022-09-12T05:01:52.478Z,2.53
2022-09-12T05:04:23.836Z,2.20
2022-09-12T05:06:53.276Z,2.40
2022-09-12T05:09:21.479Z,2.50
2022-09-12T05:12:05.873Z,2.37
2022-09-12T05:14:37.183Z,2.83
2022-09-12T05:17:06.476Z,2.83
2022-09-12T05:19:39.408Z,2.70
2022-09-12T05:22:10.205Z,2.90
2022-09-12T05:24:54.016Z,2.93
2022-09-12T05:27:25.904Z,3.50
2022-09-12T05:29:54.414Z,3.10
2022-09-12T05:32:28.685Z,3.37
2022-09-12T05:35:00.217Z,3.30
2022-09-12T05:37:29.156Z,3.53
2022-09-12T05:40:04.488Z,3.40
2022-09-12T05:42:35.432Z,3.70
2022-09-12T05:45:06.132Z,3.67
2022-09-12T05:47:38.766Z,3.40
2022-09-12T05:50:13.242Z,4.20
2022-09-12T05:52:44.926Z,3.80
2022-09-12T05:55:17.195Z,3.90
2022-09-12T05:57:56.927Z,4.37
2022-09-12T06:00:28.386Z,4.00
2022-09-12T06:03:02.409Z,4.50
2022-09-12T06:05:35.480Z,4.23
2022-09-12T06:08:04.849Z,4.50
2022-09-12T06:10:34.128Z,4.47
2022-09-12T06:13:08.395Z,4.23
2022-09-12T06:15:37.942Z,4.37
2022-09-12T06:18:08.677Z,4.73
2022-09-12T06:20:41.498Z,4.87
2022-09-12T06:23:13.855Z,4.50
2022-09-12T06:25:49.861Z,4.30
2022-09-12T06:28:20.034Z,4.83
2022-09-12T06:30:52.950Z,4.60
2022-09-12T06:33:22.946Z,4.93
2022-09-12T06:35:52.480Z,5.27
2022-09-12T06:38:24.044Z,5.13
2022-09-12T06:40:56.779Z,5.47
2022-09-12T06:43:33.325Z,5.37
2022-09-12T06:46:06.019Z,6.00
2022-09-12T06:48:36.482Z,5.63
2022-09-12T06:51:20.028Z,6.00
2022-09-12T06:53:49.354Z,6.30
2022-09-12T06:56:23.656Z,7.57
2022-09-12T06:58:53.446Z,7.00
2022-09-12T07:01:23.804Z,7.00
2022-09-12T07:03:53.683Z,6.00
2022-09-12T07:06:26.489Z,6.73
2022-09-12T07:08:57.232Z,6.30
2022-09-12T07:11:31.957Z,6.70
2022-09-12T07:16:48.456Z,5.80
2022-09-12T07:19:20.559Z,6.30
2022-09-12T07:21:56.597Z,6.47
2022-09-12T07:24:32.675Z,6.20
2022-09-12T07:27:04.714Z,6.23
2022-09-12T07:29:37.643Z,6.63
2022-09-12T07:32:11.631Z,6.27
2022-09-12T07:34:40.594Z,6.73
2022-09-12T07:37:18.436Z,6.77
2022-09-12T07:39:48.210Z,7.30
2022-09-12T07:42:19.452Z,6.47
2022-09-12T07:44:51.963Z,6.53
2022-09-12T07:47:20.778Z,7.10
2022-09-12T07:49:51.929Z,6.80
2022-09-12T07:52:19.206Z,6.40
2022-09-12T07:54:51.652Z,6.90
2022-09-12T07:57:22.518Z,6.87
2022-09-12T07:59:53.508Z,6.40
2022-09-12T08:02:24.569Z,6.67
2022-09-12T08:04:56.462Z,6.13
2022-09-12T08:07:25.630Z,6.53
2022-09-12T08:09:57.731Z,6.00
2022-09-12T08:12:27.043Z,6.10
2022-09-12T08:17:39.543Z,5.87
2022-09-12T08:20:12.249Z,5.60
2022-09-12T08:22:43.418Z,5.63
2022-09-12T08:25:16.559Z,5.67
2022-09-12T08:27:46.221Z,5.10
2022-09-12T08:30:19.616Z,5.43
2022-09-12T08:32:54.472Z,4.93
2022-09-12T08:35:29.052Z,5.50
2022-09-12T08:37:59.706Z,5.57
2022-09-12T08:40:30.059Z,5.47
2022-09-12T08:43:01.372Z,5.30
2022-09-12T08:45:45.768Z,5.63
2022-09-12T08:48:14.654Z,5.70
2022-09-12T08:50:49.845Z,5.27
2022-09-12T08:53:25.138Z,5.23
2022-09-12T08:56:04.620Z,5.00
2022-09-12T08:58:39.733Z,4.90
2022-09-12T09:01:24.630Z,4.83
2022-09-12T09:04:14.736Z,4.43
2022-09-12T09:06:50.040Z,4.50
2022-09-12T09:09:23.799Z,4.80
2022-09-12T09:12:13.485Z,4.80
2022-09-12T09:14:55.395Z,4.20
2022-09-12T09:17:34.098Z,4.50
2022-09-12T09:20:12.585Z,4.10
2022-09-12T09:22:56.350Z,4.23
2022-09-12T09:25:42.394Z,4.10
2022-09-12T09:28:25.021Z,3.93
2022-09-12T09:31:04.614Z,4.20
2022-09-12T09:33:38.891Z,4.00
2022-09-12T09:36:19.172Z,3.80
2022-09-12T09:39:04.675Z,4.23
2022-09-12T09:41:49.766Z,3.73
2022-09-12T09:44:20.130Z,4.00
2022-09-12T09:46:54.351Z,3.70
2022-09-12T09:49:29.364Z,3.97
2022-09-12T09:52:05.385Z,4.23
2022-09-12T09:54:59.668Z,3.93
2022-09-12T09:57:55.929Z,3.47
2022-09-12T10:00:42.249Z,4.03
2022-09-12T10:03:16.634Z,4.17
2022-09-12T10:05:57.311Z,3.70
2022-09-12T10:08:28.914Z,3.60
2022-09-12T10:11:01.704Z,3.83
2022-09-12T10:13:39.292Z,3.63
2022-09-12T10:16:23.036Z,3.80
2022-09-12T10:18:55.071Z,4.10
2022-09-12T10:21:44.446Z,4.37
2022-09-12T10:24:35.323Z,4.00
2022-09-12T10:27:13.155Z,3.70
2022-09-12T10:30:05.142Z,3.87
2022-09-12T10:32:53.702Z,3.50
2022-09-12T10:35:38.297Z,3.47
2022-09-12T10:38:08.731Z,3.47
2022-09-12T10:43:32.503Z,3.90
2022-09-12T10:46:32.890Z,3.70
2022-09-12T10:49:21.181Z,3.50
2022-09-12T10:51:53.524Z,3.50
2022-09-12T10:54:36.198Z,3.20
2022-09-12T10:57:24.162Z,3.73
2022-09-12T11:00:01.219Z,3.30
2022-09-12T11:02:39.258Z,3.43
2022-09-12T11:05:32.280Z,3.33
2022-09-12T11:08:27.518Z,3.13
2022-09-12T11:11:07.463Z,3.50
2022-09-12T11:13:53.606Z,3.30
2022-09-12T11:16:36.549Z,3.00
2022-09-12T11:19:17.657Z,3.23
2022-09-12T11:22:11.054Z,3.23
2022-09-12T11:24:50.815Z,2.50
2022-09-12T11:27:30.318Z,3.00
2022-09-12T11:30:22.058Z,2.40
2022-09-12T11:33:10.379Z,2.37
2022-09-12T11:35:55.022Z,2.63
2022-09-12T11:38:46.727Z,2.57
2022-09-12T11:41:26.402Z,2.90
2022-09-12T11:44:10.631Z,2.80
2022-09-12T11:46:43.848Z,2.50
2022-09-12T11:49:18.966Z,2.87
2022-09-12T11:51:58.423Z,2.77
2022-09-12T11:54:31.731Z,2.50
2022-09-12T11:57:04.581Z,2.77
2022-09-12T11:59:58.096Z,2.67
2022-09-12T12:02:57.350Z,2.73
2022-09-12T12:05:44.286Z,2.80
2022-09-12T12:08:15.424Z,2.50
2022-09-12T12:10:49.386Z,2.50
2022-09-12T12:13:57.069Z,2.60
2022-09-12T12:19:39.079Z,2.33
2022-09-12T12:25:22.943Z,2.30
2022-09-12T12:28:08.580Z,2.00
2022-09-12T12:30:44.679Z,2.50
2022-09-12T12:33:18.338Z,2.70
2022-09-12T12:36:07.168Z,2.13
2022-09-12T12:38:42.542Z,2.50
2022-09-12T12:41:25.868Z,2.63
2022-09-12T12:44:02.136Z,2.67
2022-09-12T12:46:31.684Z,2.77
2022-09-12T12:49:21.032Z,2.40
2022-09-12T12:51:51.812Z,2.50
2022-09-12T12:54:40.923Z,2.90
2022-09-12T12:57:17.693Z,2.83
2022-09-12T13:00:11.285Z,2.87
2022-09-12T13:02:54.622Z,3.10
2022-09-12T13:05:26.892Z,2.70
2022-09-12T13:08:01.896Z,3.20
2022-09-12T13:10:33.374Z,2.70
2022-09-12T13:13:16.780Z,2.70
2022-09-12T13:15:49.851Z,3.07
2022-09-12T13:18:30.371Z,2.97
2022-09-12T13:21:06.793Z,2.80
2022-09-12T13:23:37.903Z,2.90
2022-09-12T13:26:12.288Z,2.70
2022-09-12T13:28:41.060Z,3.10
2022-09-12T13:31:35.379Z,3.47
2022-09-12T13:34:10.076Z,2.80
2022-09-12T13:36:55.392Z,2.90
2022-09-12T13:39:28.762Z,3.03
2022-09-12T13:42:18.164Z,3.37
2022-09-12T13:44:49.968Z,2.70
2022-09-12T13:47:41.174Z,2.67
2022-09-12T13:50:22.634Z,2.70
2022-09-12T13:52:57.486Z,2.70
2022-09-12T13:58:27.401Z,3.10
2022-09-12T14:01:17.760Z,2.80
2022-09-12T14:04:16.990Z,2.80
2022-09-12T14:06:51.288Z,3.70
2022-09-12T14:09:33.585Z,2.67
2022-09-12T14:12:07.275Z,2.70
2022-09-12T14:14:38.978Z,2.90
2022-09-12T14:17:23.025Z,2.53
2022-09-12T14:19:53.641Z,2.60
2022-09-12T14:22:26.242Z,2.83
2022-09-12T14:24:59.094Z,2.50
2022-09-12T14:27:38.007Z,2.60
2022-09-12T14:30:23.849Z,2.90
2022-09-12T14:33:09.826Z,2.90
2022-09-12T14:35:45.227Z,2.63
2022-09-12T14:38:12.673Z,2.80
2022-09-12T14:40:49.593Z,2.67
2022-09-12T14:43:47.311Z,2.63
2022-09-12T14:46:30.328Z,2.40
2022-09-12T14:49:02.128Z,2.43
2022-09-12T14:51:41.658Z,2.50
2022-09-12T14:54:35.302Z,2.87
2022-09-12T14:57:12.809Z,2.80
2022-09-12T14:59:45.603Z,2.30
2022-09-12T15:02:31.701Z,2.33
2022-09-12T15:05:10.132Z,2.30
2022-09-12T15:07:52.056Z,2.27
2022-09-12T15:10:42.744Z,2.70
2022-09-12T15:13:34.176Z,2.40
2022-09-12T15:16:08.434Z,2.33
2022-09-12T15:18:39.943Z,2.13
2022-09-12T15:21:12.707Z,1.97
2022-09-12T15:23:51.964Z,2.23
2022-09-12T15:26:29.025Z,2.57
2022-09-12T15:29:09.999Z,2.33
2022-09-12T15:31:42.375Z,1.93
2022-09-12T15:34:13.397Z,2.20
2022-09-12T15:36:53.178Z,2.40
2022-09-12T15:39:24.348Z,2.10
2022-09-12T15:41:56.537Z,2.17
2022-09-12T15:44:25.762Z,1.97
2022-09-12T15:46:57.431Z,2.13
2022-09-12T15:49:25.784Z,2.03
2022-09-12T15:52:08.765Z,1.90
2022-09-12T15:54:39.086Z,1.97
2022-09-12T15:57:06.921Z,2.03
2022-09-12T15:59:38.775Z,1.93
2022-09-12T16:02:11.579Z,1.80
2022-09-12T16:04:44.975Z,1.60
2022-09-12T16:07:16.024Z,2.10
2022-09-12T16:09:50.765Z,2.07
2022-09-12T16:12:19.205Z,2.03
2022-09-12T16:14:52.210Z,1.97
2022-09-12T16:17:24.068Z,2.00
2022-09-12T16:19:57.170Z,2.07
2022-09-12T16:22:30.436Z,2.23
2022-09-12T16:25:03.055Z,2.30
2022-09-12T16:27:31.061Z,1.87
2022-09-12T16:30:04.115Z,2.30
2022-09-12T16:32:35.205Z,1.83
2022-09-12T16:35:12.092Z,1.90
2022-09-12T16:37:46.943Z,2.10
2022-09-12T16:40:22.325Z,2.07
2022-09-12T16:42:54.128Z,2.07
2022-09-12T16:45:26.882Z,2.33
2022-09-12T16:47:54.546Z,1.90
2022-09-12T16:50:25.822Z,1.83
2022-09-12T16:52:57.676Z,1.93
2022-09-12T16:55:32.441Z,1.83
2022-09-12T17:00:44.976Z,2.10
2022-09-12T17:03:22.664Z,2.00
2022-09-12T17:06:05.444Z,2.10
2022-09-12T17:08:40.858Z,1.80
2022-09-12T17:11:10.588Z,1.90
2022-09-12T17:14:00.557Z,2.23
2022-09-12T17:16:34.289Z,2.17
2022-09-12T17:19:05.545Z,1.90
2022-09-12T17:21:43.033Z,2.00
2022-09-12T17:24:13.331Z,2.33
2022-09-12T17:26:42.052Z,2.00
2022-09-12T17:29:18.238Z,1.80
2022-09-12T17:31:49.852Z,1.83
2022-09-12T17:34:34.524Z,1.83
2022-09-12T17:37:03.117Z,2.00
2022-09-12T17:39:37.458Z,1.80
2022-09-12T17:42:10.222Z,2.00
2022-09-12T17:44:42.641Z,1.90
2022-09-12T17:47:13.117Z,1.80
2022-09-12T17:49:42.594Z,2.00
2022-09-12T17:52:11.937Z,2.10
2022-09-12T17:54:42.631Z,2.10
2022-09-12T17:57:13.320Z,1.90
2022-09-12T17:59:49.227Z,2.03
2022-09-12T18:02:21.863Z,2.10
2022-09-12T18:04:56.439Z,1.83
2022-09-12T18:07:28.192Z,1.90
2022-09-12T18:09:59.296Z,1.80
2022-09-12T18:12:30.125Z,1.80
2022-09-12T18:15:00.524Z,2.20
2022-09-12T18:17:31.587Z,2.03
2022-09-12T18:20:02.033Z,2.27
2022-09-12T18:22:33.458Z,2.10
2022-09-12T18:25:03.084Z,2.20
2022-09-12T18:27:35.972Z,2.40
2022-09-12T18:30:21.824Z,2.40
2022-09-12T18:32:54.857Z,2.20
2022-09-12T18:35:25.069Z,2.57
2022-09-12T18:37:56.488Z,2.60
2022-09-12T18:40:30.027Z,2.60
2022-09-12T18:43:10.696Z,2.50
2022-09-12T18:45:41.192Z,2.43
2022-09-12T18:48:10.413Z,2.20
2022-09-12T18:50:41.085Z,2.47
2022-09-12T18:53:12.755Z,2.50
2022-09-12T18:55:42.287Z,2.70
2022-09-12T18:58:12.339Z,2.60
2022-09-12T19:00:44.897Z,2.30
2022-09-12T19:03:18.279Z,2.50
2022-09-12T19:05:47.141Z,2.70
2022-09-12T19:11:01.776Z,2.77
2022-09-12T19:13:30.357Z,3.10
2022-09-12T19:16:04.307Z,2.80
2022-09-12T19:18:34.087Z,3.00
2022-09-12T19:21:02.260Z,3.00
2022-09-12T19:23:38.576Z,3.40
2022-09-12T19:26:10.886Z,3.20
2022-09-12T19:28:44.055Z,3.00
2022-09-12T19:31:12.512Z,3.00
2022-09-12T19:33:44.590Z,3.30
2022-09-12T19:36:34.159Z,3.10
2022-09-12T19:39:05.404Z,3.17
2022-09-12T19:41:35.220Z,3.13
2022-09-12T19:44:17.732Z,2.90
2022-09-12T19:46:48.492Z,3.30
2022-09-12T19:49:16.221Z,3.17
2022-09-12T19:51:48.833Z,3.20
2022-09-12T19:54:20.285Z,3.67
2022-09-12T19:56:51.076Z,3.43
2022-09-12T19:59:31.929Z,3.20
2022-09-12T20:02:09.835Z,3.50
2022-09-12T20:04:41.811Z,3.50
2022-09-12T20:07:14.865Z,3.70
2022-09-12T20:09:47.113Z,3.20
2022-09-12T20:12:17.870Z,3.50
2022-09-12T20:14:52.138Z,4.00
2022-09-12T20:17:22.231Z,3.70
2022-09-12T20:19:54.191Z,4.13
2022-09-12T20:22:26.440Z,3.87
2022-09-12T20:24:56.359Z,3.53
2022-09-12T20:27:23.773Z,3.87
2022-09-12T20:29:56.553Z,3.90
2022-09-12T20:32:29.723Z,4.03
2022-09-12T20:35:01.452Z,3.60
2022-09-12T20:37:30.562Z,3.97
2022-09-12T20:40:02.619Z,4.00
2022-09-12T20:42:32.245Z,3.87
2022-09-12T20:45:03.742Z,3.97
2022-09-12T20:47:35.646Z,4.00
2022-09-12T20:50:06.377Z,3.60
2022-09-12T20:52:37.831Z,3.90
2022-09-12T20:55:10.400Z,4.00
2022-09-12T20:57:38.590Z,4.00
2022-09-12T21:00:13.914Z,4.17
2022-09-12T21:02:45.554Z,4.17
2022-09-12T21:05:18.944Z,4.13
2022-09-12T21:07:48.340Z,4.47
2022-09-12T21:10:15.674Z,4.63
2022-09-12T21:12:44.538Z,4.60
2022-09-12T21:15:17.416Z,4.37
2022-09-12T21:17:48.874Z,4.10
2022-09-12T21:20:23.484Z,4.43
2022-09-12T21:23:04.052Z,4.47
2022-09-12T21:25:33.667Z,4.13
2022-09-12T21:28:03.047Z,4.43
2022-09-12T21:30:35.771Z,4.27
2022-09-12T21:33:08.489Z,4.40
2022-09-12T21:35:43.848Z,4.20
2022-09-12T21:38:12.113Z,4.23
2022-09-12T21:40:43.506Z,4.43
2022-09-12T21:43:17.405Z,4.30
2022-09-12T21:45:49.584Z,4.70
2022-09-12T21:48:18.389Z,4.53
2022-09-12T21:50:54.269Z,4.67
2022-09-12T21:53:24.339Z,4.13
2022-09-12T21:55:53.928Z,4.33
2022-09-12T21:58:25.065Z,3.97
2022-09-12T22:00:56.983Z,4.30
2022-09-12T22:03:27.058Z,4.00
2022-09-12T22:05:58.913Z,4.10
2022-09-12T22:08:26.802Z,4.23
2022-09-12T22:11:02.014Z,4.13
2022-09-12T22:13:33.671Z,4.33
2022-09-12T22:16:05.309Z,3.93
2022-09-12T22:18:36.773Z,4.20
2022-09-12T22:24:08.428Z,4.13
2022-09-12T22:27:02.319Z,4.23
2022-09-12T22:29:33.612Z,4.13
2022-09-12T22:32:03.823Z,4.50
2022-09-12T22:34:33.413Z,4.30
2022-09-12T22:37:05.443Z,4.00
2022-09-12T22:39:35.319Z,3.97
2022-09-12T22:42:04.782Z,4.00
2022-09-12T22:44:38.788Z,4.00
2022-09-12T22:47:08.468Z,4.60
2022-09-12T22:49:38.719Z,3.83
2022-09-12T22:52:10.481Z,4.40
2022-09-12T22:54:40.533Z,4.23
2022-09-12T22:57:11.150Z,4.40
2022-09-12T22:59:41.323Z,4.03
2022-09-12T23:02:11.555Z,4.40
2022-09-12T23:04:44.330Z,4.13
2022-09-12T23:07:14.739Z,3.93
2022-09-12T23:09:48.800Z,3.93
2022-09-12T23:12:20.983Z,4.00
2022-09-12T23:14:49.523Z,4.40
2022-09-12T23:17:22.380Z,4.17
2022-09-12T23:19:52.812Z,4.30
2022-09-12T23:22:24.188Z,3.70
2022-09-12T23:24:52.668Z,4.10
2022-09-12T23:27:23.407Z,4.13
2022-09-12T23:29:56.928Z,4.27
2022-09-12T23:32:27.867Z,3.63
2022-09-12T23:34:57.395Z,4.10
2022-09-12T23:37:28.856Z,3.77
2022-09-12T23:39:59.726Z,4.40
2022-09-12T23:45:15.598Z,3.87
2022-09-12T23:47:46.663Z,3.80
2022-09-12T23:50:16.392Z,4.10
2022-09-12T23:53:12.050Z,3.50
2022-09-12T23:55:54.333Z,4.10
2022-09-12T23:58:25.152Z,4.07
